Time;durP1;ratioP1;P1;durP2;ratioP2;P2;SDS_P1;SDS_P2;PMS_P1;PMS_P2;Temp;Humidity;BMP_temperature;BMP_pressure;BME280_temperature;BME280_humidity;BME280_pressure;Samples;Min_cycle;Max_cycle;Signal;HPM_P1;HPM_P2
2021/03/20 00:00:32;;;;;;;31.68;22.32;;;;;;;-2.62;74.13;98525.59;1805790;79;20897;-65
2021/03/20 00:03:00;;;;;;;29.05;20.35;;;;;;;-2.62;74.12;98532.17;1805667;79;21376;-65
2021/03/20 00:05:28;;;;;;;37.17;24.40;;;;;;;-2.64;74.27;98528.70;1805511;79;21010;-65
2021/03/20 00:07:56;;;;;;;32.50;20.17;;;;;;;-2.63;74.34;98536.17;1805757;79;20881;-65
2021/03/20 00:10:25;;;;;;;35.17;22.45;;;;;;;-2.64;74.34;98533.97;1805692;79;20897;-65
2021/03/20 00:12:53;;;;;;;35.48;24.85;;;;;;;-2.63;74.38;98535.72;1755841;79;20893;-65
2021/03/20 00:15:24;;;;;;;39.63;26.42;;;;;;;-2.63;74.40;98533.55;1805626;79;21298;-65
2021/03/20 00:17:52;;;;;;;37.17;24.07;;;;;;;-2.62;74.44;98537.89;1805610;79;20933;-65
2021/03/20 00:20:27;;;;;;;31.82;21.55;;;;;;;-2.64;74.50;98533.97;1805698;79;20957;-65
2021/03/20 00:22:58;;;;;;;37.45;23.45;;;;;;;-2.65;74.50;98533.56;1805617;79;20995;-65
2021/03/20 00:25:26;;;;;;;34.70;24.35;;;;;;;-2.66;74.54;98529.19;1805689;79;20929;-64
2021/03/20 00:27:54;;;;;;;38.90;23.50;;;;;;;-2.67;74.53;98528.75;1805756;79;21378;-65
2021/03/20 00:30:24;;;;;;;35.65;23.80;;;;;;;-2.67;74.53;98530.06;1805516;79;20936;-65
2021/03/20 00:32:51;;;;;;;29.85;21.97;;;;;;;-2.69;74.58;98526.59;1805702;79;20917;-64
2021/03/20 00:35:20;;;;;;;37.65;25.48;;;;;;;-2.70;74.62;98528.79;1805591;79;20988;-64
2021/03/20 00:37:53;;;;;;;32.95;23.07;;;;;;;-2.71;74.72;98531.02;1805630;79;20928;-64
2021/03/20 00:40:25;;;;;;;36.05;24.40;;;;;;;-2.72;74.79;98530.13;1805620;79;21251;-65
2021/03/20 00:42:54;;;;;;;40.52;25.88;;;;;;;-2.71;74.83;98532.33;1805778;79;20881;-65
2021/03/20 00:45:24;;;;;;;40.10;26.02;;;;;;;-2.73;74.90;98531.46;1805582;79;20909;-65
2021/03/20 00:47:52;;;;;;;37.55;26.15;;;;;;;-2.75;74.93;98532.80;1805704;79;20873;-65
2021/03/20 00:50:24;;;;;;;35.60;24.50;;;;;;;-2.74;74.98;98532.38;1805723;79;20995;-65
2021/03/20 00:52:54;;;;;;;38.15;23.75;;;;;;;-2.77;75.06;98530.64;1805685;79;21354;-65
2021/03/20 00:55:22;;;;;;;32.55;22.87;;;;;;;-2.77;75.18;98535.05;1805593;79;21078;-64
2021/03/20 00:57:49;;;;;;;39.63;26.20;;;;;;;-2.78;75.37;98533.30;1805713;79;20995;-63
2021/03/20 01:00:21;;;;;;;35.63;22.58;;;;;;;-2.79;75.43;98531.55;1805714;79;22034;-66
2021/03/20 01:02:49;;;;;;;39.20;25.92;;;;;;;-2.81;75.46;98529.39;1805806;79;20960;-65
2021/03/20 01:05:17;;;;;;;37.78;25.02;;;;;;;-2.80;75.45;98528.52;1805836;79;21319;-65
2021/03/20 01:07:45;;;;;;;35.58;25.37;;;;;;;-2.80;75.48;98533.77;1780842;79;20908;-65
2021/03/20 01:10:19;;;;;;;43.10;26.27;;;;;;;-2.81;75.47;98525.45;1805766;79;20924;-65
2021/03/20 01:12:46;;;;;;;37.55;26.10;;;;;;;-2.83;75.51;98529.86;1805535;79;21575;-65
2021/03/20 01:15:17;;;;;;;34.00;25.15;;;;;;;-2.84;75.59;98526.80;1805747;79;20912;-64
2021/03/20 01:17:45;;;;;;;36.05;25.08;;;;;;;-2.84;75.70;98524.17;1805885;79;21423;-64
2021/03/20 01:20:14;;;;;;;35.30;24.02;;;;;;;-2.84;75.68;98524.17;1805739;79;20913;-66
2021/03/20 01:22:42;;;;;;;38.63;24.63;;;;;;;-2.85;75.67;98528.98;1805757;79;21369;-64
2021/03/20 01:25:11;;;;;;;31.80;21.93;;;;;;;-2.86;75.84;98524.64;1805595;79;20972;-64
2021/03/20 01:27:39;;;;;;;36.35;22.17;;;;;;;-2.87;75.81;98526.38;1805827;79;20964;-65
2021/03/20 01:30:20;;;;;;;33.02;21.95;;;;;;;-2.89;75.82;98528.63;1805839;79;21188;-65
2021/03/20 01:32:48;;;;;;;33.65;23.18;;;;;;;-2.91;75.82;98524.25;1805858;79;20968;-66
2021/03/20 01:35:17;;;;;;;34.20;23.45;;;;;;;-2.94;76.16;98522.97;1805732;79;21003;-65
2021/03/20 01:37:44;;;;;;;36.68;23.57;;;;;;;-2.95;75.92;98531.77;1805748;79;20900;-65
2021/03/20 01:40:15;;;;;;;40.80;24.80;;;;;;;-2.96;76.02;98531.33;1805742;79;20866;-65
2021/03/20 01:42:44;;;;;;;36.70;24.27;;;;;;;-2.99;75.99;98534.45;1805783;79;21181;-64
2021/03/20 01:45:25;;;;;;;41.53;25.15;;;;;;;-3.02;76.15;98534.04;1805742;79;20933;-66
2021/03/20 01:48:13;;;;;;;37.28;25.05;;;;;;;-3.04;76.17;98533.20;1805767;79;20881;-65
2021/03/20 01:50:56;;;;;;;36.70;24.27;;;;;;;-3.09;76.21;98533.25;1805774;79;20928;-64
2021/03/20 01:53:37;;;;;;;35.88;23.22;;;;;;;-3.10;76.26;98541.16;1806016;79;20865;-65
2021/03/20 01:56:08;;;;;;;31.60;22.15;;;;;;;-3.14;76.33;98537.70;1805776;77;21351;-66
2021/03/20 01:58:39;;;;;;;36.70;23.32;;;;;;;-3.15;76.37;98539.03;1805726;78;21015;-65
2021/03/20 02:01:15;;;;;;;37.25;23.05;;;;;;;-3.18;76.45;98543.01;1805743;79;20916;-65
2021/03/20 02:03:43;;;;;;;30.32;22.15;;;;;;;-3.19;76.55;98547.83;1805779;78;20905;-65
2021/03/20 02:06:12;;;;;;;32.35;23.07;;;;;;;-3.20;76.66;98542.13;1805782;79;20917;-65
2021/03/20 02:08:42;;;;;;;31.50;21.97;;;;;;;-3.20;76.65;98543.45;1805911;79;21437;-65
2021/03/20 02:11:42;;;;;;;31.70;22.10;;;;;;;-3.20;76.70;98546.97;1805720;79;20885;-65
2021/03/20 02:14:51;;;;;;;32.03;21.93;;;;;;;-3.21;76.76;98553.09;1805775;79;20976;-66
2021/03/20 02:17:43;;;;;;;41.25;22.73;;;;;;;-3.21;76.80;98553.55;1778429;80;20999;-65
2021/03/20 02:20:29;;;;;;;33.18;21.40;;;;;;;-3.21;76.77;98552.23;1778533;80;20992;-65
2021/03/20 02:23:13;;;;;;;34.18;23.05;;;;;;;-3.22;76.78;98554.43;1796532;79;21437;-66
2021/03/20 02:26:25;;;;;;;34.85;21.07;;;;;;;-3.23;76.69;98556.62;1804877;79;21000;-64
2021/03/20 02:29:48;;;;;;;32.13;21.68;;;;;;;-3.24;76.76;98553.59;1728371;83;20952;-66
2021/03/20 02:32:38;;;;;;;28.40;20.72;;;;;;;-3.23;76.80;98557.94;1698175;84;20964;-65
2021/03/20 02:35:16;;;;;;;32.70;21.48;;;;;;;-3.27;76.76;98556.66;1728351;83;20975;-64
2021/03/20 02:38:26;;;;;;;28.85;20.23;;;;;;;-3.28;76.73;98561.50;1727596;83;21602;-65
2021/03/20 02:41:14;;;;;;;34.07;22.00;;;;;;;-3.28;76.75;98564.55;1728508;83;20964;-64
2021/03/20 02:43:58;;;;;;;31.70;21.17;;;;;;;-3.31;76.78;98565.47;1698095;84;20979;-66
2021/03/20 02:46:38;;;;;;;34.20;21.85;;;;;;;-3.32;76.86;98568.98;1698233;84;20952;-66
2021/03/20 02:49:41;;;;;;;30.82;21.50;;;;;;;-3.32;76.93;98573.38;1728360;83;20961;-66
2021/03/20 02:52:21;;;;;;;42.67;23.22;;;;;;;-3.32;77.03;98576.85;1698233;84;21216;-65
2021/03/20 02:55:13;;;;;;;34.25;21.40;;;;;;;-3.34;77.12;98576.02;1728383;83;21588;-65
2021/03/20 02:57:52;;;;;;;34.53;20.77;;;;;;;-3.34;77.12;98583.00;1728320;83;20959;-65
2021/03/20 03:00:37;;;;;;;33.90;21.62;;;;;;;-3.35;77.11;98594.41;1727830;82;21057;-65
2021/03/20 03:03:08;;;;;;;34.05;21.85;;;;;;;-3.36;77.13;98596.18;1698293;84;20932;-64
2021/03/20 03:05:58;;;;;;;30.77;22.67;;;;;;;-3.38;77.20;98590.05;1728304;83;21361;-65
2021/03/20 03:08:45;;;;;;;30.63;21.23;;;;;;;-3.37;77.16;98594.88;1699780;84;20960;-64
2021/03/20 03:11:41;;;;;;;32.33;22.42;;;;;;;-3.38;77.15;98593.98;1698381;83;21566;-64
2021/03/20 03:14:25;;;;;;;36.55;22.42;;;;;;;-3.39;77.17;98593.59;1722470;83;21259;-65
2021/03/20 03:16:56;;;;;;;30.27;20.43;;;;;;;-3.41;77.14;98591.84;1725425;83;20967;-65
2021/03/20 03:19:31;;;;;;;36.93;20.85;;;;;;;-3.42;77.08;98592.30;1698106;84;21395;-65
2021/03/20 03:22:00;;;;;;;26.75;19.23;;;;;;;-3.44;77.11;98594.05;1698126;84;20955;-65
2021/03/20 03:24:30;;;;;;;30.27;21.33;;;;;;;-3.45;77.16;98596.27;1728358;83;21362;-65
2021/03/20 03:27:04;;;;;;;31.45;21.60;;;;;;;-3.45;77.16;98597.58;1697771;84;20948;-65
2021/03/20 03:29:34;;;;;;;30.02;21.48;;;;;;;-3.46;77.28;98603.25;1695405;84;21043;-65
2021/03/20 03:32:33;;;;;;;31.07;21.05;;;;;;;-3.47;77.28;98605.89;1695413;84;21463;-64
2021/03/20 03:35:28;;;;;;;29.40;20.23;;;;;;;-3.48;77.30;98598.47;1695369;84;20960;-65
2021/03/20 03:38:08;;;;;;;;;;;;;;;-3.48;77.30;98605.03;1698088;84;20940;-64
2021/03/20 03:41:01;;;;;;;30.10;19.25;;;;;;;-3.50;77.28;98601.98;1695371;84;20133;-65
2021/03/20 03:43:30;;;;;;;30.75;20.27;;;;;;;-3.53;77.26;98612.09;1684897;84;21434;-65
2021/03/20 03:45:58;;;;;;;28.30;19.17;;;;;;;-3.53;77.31;98609.89;1695435;84;21231;-65
2021/03/20 03:48:26;;;;;;;30.23;19.90;;;;;;;-3.53;77.36;98615.14;1695426;84;20967;-67
2021/03/20 03:50:58;;;;;;;29.95;20.52;;;;;;;-3.53;77.34;98613.83;1695482;84;21347;-65
2021/03/20 03:53:27;;;;;;;38.02;21.93;;;;;;;-3.53;77.36;98612.52;1694503;84;20964;-65
2021/03/20 03:56:02;;;;;;;32.75;22.90;;;;;;;-3.53;77.31;98613.83;1695391;84;20897;-65
2021/03/20 03:59:06;;;;;;;32.98;20.85;;;;;;;-3.51;77.26;98616.02;1695477;84;22401;-65
2021/03/20 04:01:43;;;;;;;33.40;23.38;;;;;;;-3.51;77.25;98609.45;1695356;84;21545;-64
2021/03/20 04:04:38;;;;;;;38.20;24.20;;;;;;;-3.51;77.24;98615.56;1695433;84;21007;-66
2021/03/20 04:08:03;;;;;;;35.78;22.93;;;;;;;-3.52;77.22;98617.75;1695514;84;21371;-66
2021/03/20 04:10:52;;;;;;;42.95;24.90;;;;;;;-3.51;77.17;98624.76;1695411;84;21441;-67
2021/03/20 04:13:58;;;;;;;37.15;23.65;;;;;;;-3.51;77.09;98622.58;1695437;84;21393;-67
2021/03/20 04:16:33;;;;;;;33.42;23.92;;;;;;;-3.50;77.05;98621.68;1695361;84;20920;-65
2021/03/20 04:19:37;;;;;;;31.97;21.77;;;;;;;-3.50;76.96;98622.99;1695265;84;21083;-65
2021/03/20 04:22:13;;;;;;;32.42;22.07;;;;;;;-3.48;76.88;98623.88;1695426;84;20968;-64
2021/03/20 04:24:46;;;;;;;34.53;22.37;;;;;;;-3.49;76.79;98627.37;1695412;84;20928;-66
2021/03/20 04:27:20;;;;;;;32.95;21.02;;;;;;;-3.49;76.74;98626.92;1695885;84;22283;-65
2021/03/20 04:30:14;;;;;;;37.13;22.95;;;;;;;-3.48;76.70;98619.93;1681103;84;20971;-65
2021/03/20 04:33:12;;;;;;;38.33;21.20;;;;;;;-3.49;76.67;98619.04;1733771;82;20971;-66
2021/03/20 04:35:57;;;;;;;32.90;21.73;;;;;;;-3.48;76.63;98623.42;1733836;82;21034;-66
2021/03/20 04:38:27;;;;;;;31.73;20.65;;;;;;;-3.46;76.62;98626.03;1701083;84;20951;-65
2021/03/20 04:41:02;;;;;;;30.85;20.15;;;;;;;-3.47;76.56;98624.28;1733820;82;21391;-65
2021/03/20 04:43:33;;;;;;;33.73;20.50;;;;;;;-3.47;76.55;98630.42;1701109;84;21042;-65
2021/03/20 04:46:09;;;;;;;33.15;21.27;;;;;;;-3.47;76.54;98638.30;1733960;82;21046;-66
2021/03/20 04:48:43;;;;;;;31.20;20.48;;;;;;;-3.44;76.58;98642.63;1733819;82;20994;-66
2021/03/20 04:51:45;;;;;;;32.15;20.27;;;;;;;-3.43;76.53;98641.77;1701086;84;21036;-65
2021/03/20 04:54:19;;;;;;;30.43;19.95;;;;;;;-3.40;76.53;98640.88;1700912;84;21255;-64
2021/03/20 04:56:58;;;;;;;35.38;20.27;;;;;;;-3.36;76.56;98642.14;1733856;82;20951;-65
2021/03/20 04:59:59;;;;;;;29.00;19.20;;;;;;;-3.33;76.50;98649.97;1733805;82;20995;-66
2021/03/20 05:03:11;;;;;;;34.18;19.57;;;;;;;-3.30;76.42;98649.94;1688425;82;21284;-65
2021/03/20 05:05:59;;;;;;;30.23;18.05;;;;;;;-3.28;76.31;98648.19;1733855;82;21031;-65
2021/03/20 05:08:38;;;;;;;37.88;23.30;;;;;;;-3.23;76.33;98652.50;1733878;82;21208;-66
2021/03/20 05:11:15;;;;;;;41.75;25.43;;;;;;;-3.21;76.01;98657.33;1701001;84;20964;-66
2021/03/20 05:14:04;;;;;;;41.00;25.97;;;;;;;-3.18;75.90;98658.16;1733863;82;20999;-67
2021/03/20 05:16:43;;;;;;;44.25;27.17;;;;;;;-3.15;76.00;98664.70;1701002;84;20959;-66
2021/03/20 05:19:11;;;;;;;38.08;23.10;;;;;;;-3.10;75.91;98667.28;1733730;82;21011;-66
2021/03/20 05:21:42;;;;;;;32.50;20.90;;;;;;;-3.04;75.95;98668.53;1733812;82;21220;-65
2021/03/20 05:24:20;;;;;;;28.65;19.25;;;;;;;-2.98;75.83;98666.27;1701037;84;21654;-66
2021/03/20 05:26:48;;;;;;;28.40;20.00;;;;;;;-2.94;75.75;98666.22;1733824;82;20908;-68
2021/03/20 05:29:16;;;;;;;32.83;19.77;;;;;;;-2.86;75.63;98672.71;1695380;84;21517;-66
2021/03/20 05:31:44;;;;;;;37.13;22.00;;;;;;;-2.80;75.50;98674.41;1693539;84;21087;-65
2021/03/20 05:34:31;;;;;;;39.20;20.00;;;;;;;-2.74;75.31;98671.72;1693859;84;21216;-67
2021/03/20 05:36:58;;;;;;;34.92;23.02;;;;;;;-2.68;75.18;98672.97;1693565;84;21004;-67
2021/03/20 05:39:28;;;;;;;32.85;21.52;;;;;;;-2.59;74.92;98672.83;1694108;84;20976;-65
2021/03/20 05:42:24;;;;;;;31.17;20.30;;;;;;;-2.52;74.98;98675.39;1694001;84;20960;-65
2021/03/20 05:45:23;;;;;;;33.38;20.15;;;;;;;-2.45;75.01;98673.13;1693879;84;20956;-66
2021/03/20 05:48:02;;;;;;;40.43;24.77;;;;;;;-2.35;74.74;98672.09;1694004;83;21361;-66
2021/03/20 05:50:58;;;;;;;36.17;22.27;;;;;;;-2.23;74.63;98673.70;1694075;83;21031;-66
2021/03/20 05:54:19;;;;;;;39.58;24.82;;;;;;;-2.12;74.28;98676.20;1694126;84;20905;-66
2021/03/20 05:57:09;;;;;;;41.83;20.30;;;;;;;-1.98;74.03;98682.14;1638404;87;20979;-67
2021/03/20 06:00:13;;;;;;;33.28;20.85;;;;;;;-1.83;73.51;98685.87;1636287;87;20951;-65
2021/03/20 06:03:16;;;;;;;33.60;21.17;;;;;;;-1.68;73.05;98693.11;1664966;86;21235;-66
2021/03/20 06:05:53;;;;;;;32.05;20.23;;;;;;;-1.55;72.48;98692.02;1623483;87;21053;-66
2021/03/20 06:08:36;;;;;;;29.80;19.37;;;;;;;-1.44;72.04;98698.89;1647840;86;21029;-67
2021/03/20 06:11:36;;;;;;;41.63;21.05;;;;;;;-1.35;71.88;98693.02;1647838;87;20981;-66
2021/03/20 06:15:02;;;;;;;33.30;18.85;;;;;;;-1.24;71.98;98698.11;1665093;86;20964;-66
2021/03/20 06:17:55;;;;;;;27.37;18.40;;;;;;;-1.08;71.43;98696.53;1637989;87;22773;-66
2021/03/20 06:20:53;;;;;;;26.17;18.62;;;;;;;-0.90;70.71;98693.54;1664997;86;20928;-66
2021/03/20 06:24:00;;;;;;;20.90;15.53;;;;;;;-0.74;70.12;98700.75;1638022;87;21062;-66
2021/03/20 06:26:36;;;;;;;26.62;16.85;;;;;;;-0.56;69.68;98703.47;1664951;86;21413;-65
2021/03/20 06:29:32;;;;;;;21.10;15.83;;;;;;;-0.32;69.80;98706.52;1653868;84;21011;-66
2021/03/20 06:32:22;;;;;;;29.48;17.23;;;;;;;-0.05;69.28;98711.23;1669470;85;21401;-67
2021/03/20 06:35:18;;;;;;;26.15;17.25;;;;;;;0.33;69.18;98714.78;1695367;84;21062;-66
2021/03/20 06:37:52;;;;;;;19.23;15.53;;;;;;;0.71;67.57;98715.65;1693979;84;20960;-66
2021/03/20 06:40:56;;;;;;;19.75;15.23;;;;;;;1.15;67.06;98701.32;1695044;84;20956;-64
2021/03/20 06:43:31;;;;;;;25.60;15.10;;;;;;;1.49;65.55;98707.90;1694031;84;20948;-66
2021/03/20 06:46:00;;;;;;;16.15;12.63;;;;;;;1.89;64.60;98708.54;1695727;84;22207;-66
2021/03/20 06:48:31;;;;;;;14.20;11.95;;;;;;;2.16;63.44;98706.41;1695411;84;20956;-66
2021/03/20 06:50:59;;;;;;;15.20;13.08;;;;;;;2.42;62.28;98703.86;1695533;84;21470;-66
2021/03/20 06:53:48;;;;;;;17.92;15.63;;;;;;;2.49;60.52;98710.25;1695393;84;20948;-67
2021/03/20 06:56:19;;;;;;;18.25;16.05;;;;;;;2.61;60.12;98710.77;1695361;84;20900;-66
2021/03/20 06:58:46;;;;;;;16.37;14.68;;;;;;;2.71;59.79;98709.11;1695491;84;21393;-67
2021/03/20 07:01:37;;;;;;;20.20;17.20;;;;;;;2.82;59.92;98710.09;1695420;84;21027;-65
2021/03/20 07:04:43;;;;;;;25.97;18.60;;;;;;;2.91;60.24;98719.98;1695484;84;20944;-66
2021/03/20 07:07:26;;;;;;;30.95;21.93;;;;;;;3.01;60.88;98724.05;1695527;84;20976;-68
2021/03/20 07:09:56;;;;;;;27.98;20.77;;;;;;;3.08;60.20;98738.86;1695570;84;20948;-66
2021/03/20 07:12:24;;;;;;;24.07;18.15;;;;;;;3.06;60.04;98728.77;1695481;84;21417;-65
2021/03/20 07:14:59;;;;;;;34.43;22.58;;;;;;;3.02;59.65;98736.41;1695099;84;20968;-66
2021/03/20 07:17:37;;;;;;;26.10;20.17;;;;;;;3.00;59.98;98738.25;1695493;84;21387;-65
2021/03/20 07:20:16;;;;;;;27.35;21.20;;;;;;;2.91;60.40;98743.86;1695400;84;20912;-68
2021/03/20 07:22:50;;;;;;;27.52;20.82;;;;;;;2.79;60.33;98735.83;1695505;84;20940;-67
2021/03/20 07:25:30;;;;;;;34.33;23.32;;;;;;;2.64;60.93;98754.44;1692400;84;21406;-65
2021/03/20 07:28:18;;;;;;;25.72;20.97;;;;;;;2.50;61.30;98750.42;1695482;84;20924;-66
2021/03/20 07:31:00;;;;;;;33.70;24.45;;;;;;;2.38;61.68;98756.13;1695430;84;20920;-68
2021/03/20 07:33:33;;;;;;;28.07;20.92;;;;;;;2.21;61.99;98756.63;1688544;84;20959;-67
2021/03/20 07:36:35;;;;;;;37.48;24.72;;;;;;;2.11;62.01;98760.01;1695395;84;21047;-67
2021/03/20 07:39:26;;;;;;;32.13;23.80;;;;;;;1.97;62.69;98769.67;1695460;84;21274;-66
2021/03/20 07:42:02;;;;;;;29.48;21.10;;;;;;;1.91;63.61;98768.98;1695411;84;21008;-66
2021/03/20 07:45:01;;;;;;;29.18;23.35;;;;;;;1.77;63.53;98770.69;1694941;84;21055;-65
2021/03/20 07:47:40;;;;;;;29.30;21.40;;;;;;;1.66;63.95;98770.98;1695378;84;20952;-66
2021/03/20 07:50:26;;;;;;;29.67;22.48;;;;;;;1.58;64.53;98780.45;1695366;84;20952;-65
2021/03/20 07:53:11;;;;;;;39.10;23.83;;;;;;;1.57;64.99;98776.53;1695396;84;21374;-65
2021/03/20 07:56:14;;;;;;;31.48;23.00;;;;;;;1.57;64.87;98779.17;1694951;84;21043;-66
2021/03/20 07:58:48;;;;;;;30.40;22.50;;;;;;;1.64;65.15;98779.44;1694635;84;21008;-68
2021/03/20 08:01:25;;;;;;;26.05;21.02;;;;;;;1.69;65.12;98777.52;1695386;84;20973;-66
2021/03/20 08:03:57;;;;;;;35.25;24.05;;;;;;;1.75;64.73;98785.30;1695475;84;21012;-68
2021/03/20 08:06:30;;;;;;;28.67;21.50;;;;;;;1.77;64.74;98785.26;1695532;84;21434;-67
2021/03/20 08:09:21;;;;;;;25.57;19.02;;;;;;;1.82;64.69;98782.48;1693478;84;21091;-67
2021/03/20 08:12:03;;;;;;;;;;;;;;;1.84;64.85;98788.13;1698039;84;21051;-67
2021/03/20 08:14:44;;;;;;;24.75;20.25;;;;;;;1.87;63.97;98789.84;1695521;84;20137;-68
2021/03/20 08:17:14;;;;;;;24.82;19.92;;;;;;;1.80;63.81;98794.45;1683804;84;20964;-65
2021/03/20 08:19:41;;;;;;;31.05;23.18;;;;;;;1.75;64.26;98801.19;1695615;84;22157;-66
2021/03/20 08:22:55;;;;;;;28.45;21.40;;;;;;;1.67;64.25;98796.56;1694506;84;21695;-66
2021/03/20 08:25:58;;;;;;;39.60;25.45;;;;;;;1.53;64.74;98805.30;1695381;84;21012;-66
2021/03/20 08:28:43;;;;;;;34.80;25.60;;;;;;;1.39;65.50;98811.84;1695535;84;20948;-66
2021/03/20 08:31:28;;;;;;;33.45;23.50;;;;;;;1.36;65.65;98808.41;1695578;84;21023;-65
2021/03/20 08:34:26;;;;;;;32.05;23.77;;;;;;;1.33;65.84;98809.34;1695047;84;21220;-67
2021/03/20 08:37:24;;;;;;;32.88;23.73;;;;;;;1.33;66.31;98811.99;1695526;84;21027;-68
2021/03/20 08:40:40;;;;;;;34.03;26.05;;;;;;;1.30;66.13;98805.45;1695582;84;21027;-68
2021/03/20 08:43:27;;;;;;;35.23;24.35;;;;;;;1.32;66.49;98808.06;1695580;84;20905;-68
2021/03/20 08:46:41;;;;;;;40.58;27.35;;;;;;;1.33;66.58;98814.64;1695577;84;20905;-67
2021/03/20 08:49:56;;;;;;;36.63;26.93;;;;;;;1.40;66.82;98814.02;1695616;84;21027;-69
2021/03/20 08:52:41;;;;;;;45.83;25.60;;;;;;;1.50;66.21;98814.22;1695213;84;21023;-68
2021/03/20 08:55:29;;;;;;;36.15;25.85;;;;;;;1.60;65.98;98816.16;1684089;84;20968;-70
2021/03/20 08:58:40;;;;;;;37.65;25.50;;;;;;;1.67;65.58;98819.08;1694979;84;21363;-69
2021/03/20 09:01:46;;;;;;;36.15;24.47;;;;;;;1.73;65.30;98814.91;1695637;84;20909;-68
2021/03/20 09:04:17;;;;;;;32.65;22.75;;;;;;;1.84;64.27;98819.92;1705210;84;21156;-67
2021/03/20 09:07:00;;;;;;;34.05;24.15;;;;;;;2.01;64.05;98819.46;1695525;84;20948;-68
2021/03/20 09:09:45;;;;;;;31.52;24.45;;;;;;;2.14;63.41;98811.59;1687104;84;20960;-67
2021/03/20 09:12:22;;;;;;;38.42;25.80;;;;;;;2.31;62.91;98819.50;1695553;84;21032;-67
2021/03/20 09:14:51;;;;;;;37.25;25.68;;;;;;;2.37;62.00;98816.67;1695549;84;21051;-67
2021/03/20 09:17:31;;;;;;;34.95;23.27;;;;;;;2.45;61.93;98820.42;1695660;84;22300;-69
2021/03/20 09:20:38;;;;;;;44.48;25.15;;;;;;;2.39;60.78;98828.09;1706587;84;20944;-68
2021/03/20 09:23:07;;;;;;;25.25;19.80;;;;;;;2.34;60.63;98824.72;1695539;84;20940;-68
2021/03/20 09:25:40;;;;;;;42.05;24.72;;;;;;;2.32;60.75;98833.17;1695523;84;21023;-67
2021/03/20 09:28:27;;;;;;;33.70;25.70;;;;;;;2.29;61.13;98838.56;1695653;84;20952;-66
2021/03/20 09:30:56;;;;;;;30.02;22.10;;;;;;;2.21;60.99;98833.91;1693656;84;21431;-69
2021/03/20 09:33:32;;;;;;;35.40;26.33;;;;;;;2.15;60.89;98842.46;1693901;84;20995;-68
2021/03/20 09:36:23;;;;;;;35.45;25.65;;;;;;;2.05;60.99;98843.65;1694223;84;21386;-68
2021/03/20 09:38:55;;;;;;;34.55;24.82;;;;;;;2.02;60.97;98845.05;1693024;84;21056;-68
2021/03/20 09:41:28;;;;;;;31.05;24.00;;;;;;;1.99;62.20;98842.49;1694083;84;21015;-69
2021/03/20 09:44:04;;;;;;;33.45;24.27;;;;;;;1.99;61.79;98840.70;1694084;84;21395;-69
2021/03/20 09:46:46;;;;;;;39.15;26.45;;;;;;;2.05;61.88;98836.13;1693946;84;21011;-68
2021/03/20 09:49:25;;;;;;;31.82;23.20;;;;;;;2.15;62.25;98837.63;1694152;84;21391;-67
2021/03/20 09:51:58;;;;;;;27.77;23.07;;;;;;;2.28;61.28;98839.47;1694026;84;21000;-67
2021/03/20 09:54:39;;;;;;;24.32;20.62;;;;;;;2.40;60.95;98847.08;1694153;83;20940;-68
2021/03/20 09:59:46;;;;;;;25.40;20.65;;;;;;;2.58;60.39;98847.44;1694105;84;21572;-67
2021/03/20 10:02:24;;;;;;;31.12;24.45;;;;;;;2.65;60.34;98848.98;1694051;84;20960;-68
2021/03/20 10:05:23;;;;;;;30.12;22.48;;;;;;;2.74;60.85;98845.20;1693976;84;20961;-68
2021/03/20 10:08:20;;;;;;;30.92;22.35;;;;;;;2.85;58.97;98846.62;1878504;76;27976;-69
2021/03/20 10:10:53;;;;;;;28.30;22.20;;;;;;;2.85;58.58;98845.73;1852843;77;20956;-69
2021/03/20 10:13:24;;;;;;;32.10;22.40;;;;;;;2.87;58.71;98844.78;1852782;77;21185;-69
2021/03/20 10:16:01;;;;;;;25.15;20.43;;;;;;;2.88;59.26;98843.84;1819115;77;20959;-68
2021/03/20 10:18:34;;;;;;;26.70;21.42;;;;;;;2.93;57.42;98840.19;1852837;77;20971;-69
2021/03/20 10:21:18;;;;;;;22.15;19.50;;;;;;;3.00;57.64;98839.09;1852720;77;20975;-69
2021/03/20 10:24:10;;;;;;;22.80;20.02;;;;;;;3.08;58.72;98848.53;1818059;77;20975;-70
2021/03/20 10:26:47;;;;;;;28.13;20.73;;;;;;;3.14;58.26;98850.13;1852744;77;21192;-69
2021/03/20 10:29:39;;;;;;;27.00;22.32;;;;;;;3.22;58.33;98856.06;1852761;77;20932;-67
2021/03/20 10:32:19;;;;;;;28.67;21.40;;;;;;;3.14;58.18;98862.08;1853024;77;20971;-68
2021/03/20 10:34:54;;;;;;;27.58;22.25;;;;;;;3.08;58.94;98867.58;1852717;77;20924;-68
2021/03/20 10:37:32;;;;;;;32.50;24.92;;;;;;;2.99;59.25;98866.53;1852800;77;20983;-68
2021/03/20 10:40:11;;;;;;;33.00;23.12;;;;;;;2.92;59.42;98871.61;1852775;77;21362;-68
2021/03/20 10:42:45;;;;;;;30.00;24.37;;;;;;;2.82;59.70;98867.94;1852786;77;20900;-69
2021/03/20 10:45:33;;;;;;;30.17;25.00;;;;;;;2.69;60.30;98869.20;1852673;77;20980;-69
2021/03/20 10:48:14;;;;;;;31.27;23.90;;;;;;;2.57;60.41;98874.86;1852677;77;20991;-69
2021/03/20 10:50:45;;;;;;;33.50;25.02;;;;;;;2.46;61.08;98878.72;1852788;77;20975;-67
2021/03/20 10:53:26;;;;;;;31.17;25.43;;;;;;;2.37;61.51;98872.81;1852768;77;21181;-68
2021/03/20 10:55:58;;;;;;;35.23;25.32;;;;;;;2.31;62.71;98868.54;1852611;77;21436;-69
2021/03/20 10:58:38;;;;;;;29.67;23.77;;;;;;;2.29;63.35;98868.58;1852832;77;20936;-69
2021/03/20 11:01:06;;;;;;;23.35;20.08;;;;;;;2.32;61.57;98864.98;1852714;77;20920;-68
2021/03/20 11:03:40;;;;;;;26.50;20.75;;;;;;;2.42;58.55;98861.14;1852804;77;21405;-68
2021/03/20 11:06:17;;;;;;;43.33;20.95;;;;;;;2.53;57.35;98856.39;1851608;77;21360;-68
2021/03/20 11:09:07;;;;;;;27.13;17.85;;;;;;;2.68;57.94;98854.19;1841067;78;20984;-68
2021/03/20 11:11:40;;;;;;;23.85;17.23;;;;;;;2.78;56.43;98856.13;1841142;77;20908;-68
2021/03/20 11:14:20;;;;;;;24.15;19.35;;;;;;;2.86;56.45;98864.25;1841093;78;20917;-68
2021/03/20 11:17:07;;;;;;;29.45;21.85;;;;;;;2.93;56.50;98861.41;1841182;77;20905;-68
2021/03/20 11:19:41;;;;;;;34.40;22.32;;;;;;;2.94;57.57;98857.86;1840527;77;21355;-69
2021/03/20 11:22:25;;;;;;;21.45;18.70;;;;;;;2.93;57.88;98861.41;1840636;77;20940;-69
2021/03/20 11:25:03;;;;;;;21.80;17.45;;;;;;;2.87;55.72;98855.86;1840465;77;21494;-68
2021/03/20 11:27:37;;;;;;;19.40;16.25;;;;;;;2.82;54.27;98859.09;1840570;78;21039;-68
2021/03/20 11:30:19;;;;;;;19.23;16.32;;;;;;;2.78;54.67;98860.11;1840657;77;21327;-68
2021/03/20 11:32:47;;;;;;;24.25;18.23;;;;;;;2.74;54.86;98854.01;1840327;78;21199;-68
2021/03/20 11:35:37;;;;;;;23.02;18.10;;;;;;;2.70;55.19;98855.03;1815520;78;20913;-68
2021/03/20 11:38:08;;;;;;;22.67;17.37;;;;;;;2.68;55.67;98857.73;1840535;77;20928;-68
2021/03/20 11:40:50;;;;;;;22.37;17.87;;;;;;;2.69;56.38;98844.01;1791255;78;20885;-70
2021/03/20 11:43:31;;;;;;;23.75;16.80;;;;;;;2.71;55.89;98846.14;1815424;78;20912;-68
2021/03/20 11:46:12;;;;;;;20.23;16.57;;;;;;;2.74;56.19;98842.55;1840495;78;21370;-68
2021/03/20 11:48:59;;;;;;;23.10;18.70;;;;;;;2.81;56.57;98848.09;1840427;78;20885;-67
2021/03/20 11:51:48;;;;;;;26.80;18.30;;;;;;;2.82;55.69;98852.02;1840541;77;20952;-67
2021/03/20 11:54:27;;;;;;;25.57;20.25;;;;;;;2.82;56.44;98849.80;1840473;78;20901;-68
2021/03/20 11:57:09;;;;;;;21.85;17.75;;;;;;;2.84;56.39;98854.16;1840658;78;21327;-68
2021/03/20 11:59:43;;;;;;;20.60;17.55;;;;;;;2.81;55.74;98841.45;1840294;78;21431;-69
2021/03/20 12:02:26;;;;;;;20.35;17.25;;;;;;;2.80;56.24;98843.22;1840524;78;20999;-67
2021/03/20 12:05:09;;;;;;;34.50;19.23;;;;;;;2.82;56.88;98846.71;1839252;77;20959;-70
2021/03/20 12:07:40;;;;;;;15.58;13.40;;;;;;;2.86;57.77;98840.38;1846136;76;20928;-68
2021/03/20 12:10:23;;;;;;;15.15;13.68;;;;;;;2.92;56.37;98845.07;1849961;77;20923;-69
2021/03/20 12:12:53;;;;;;;19.20;16.75;;;;;;;2.95;55.78;98842.33;1849938;77;21370;-69
2021/03/20 12:15:31;;;;;;;15.63;14.10;;;;;;;3.01;56.58;98842.13;1844440;77;21035;-69
2021/03/20 12:18:12;;;;;;;17.70;14.78;;;;;;;3.01;54.96;98841.70;1849981;77;20976;-68
2021/03/20 12:20:43;;;;;;;18.27;15.78;;;;;;;3.06;57.00;98838.90;1849932;77;21031;-67
2021/03/20 12:23:23;;;;;;;19.17;17.20;;;;;;;3.07;57.00;98835.30;1850050;77;21441;-69
2021/03/20 12:25:54;;;;;;;20.15;15.60;;;;;;;3.11;57.80;98838.28;1850031;77;22354;-69
2021/03/20 12:28:37;;;;;;;16.33;14.63;;;;;;;3.14;55.39;98847.48;1850170;77;20971;-68